EDT,Max TemperatureF,Mean TemperatureF,Min TemperatureF,Max Dew PointF,MeanDew PointF,Min DewpointF,Max Humidity, Mean Humidity, Min Humidity, Max Sea Level PressureIn, Mean Sea Level PressureIn, Min Sea Level PressureIn, Max VisibilityMiles, Mean VisibilityMiles, Min VisibilityMiles, Max Wind SpeedMPH, Mean Wind SpeedMPH, Max Gust SpeedMPH,PrecipitationIn, CloudCover, Events, WindDirDegrees
2008-5-1,74,57,40,45,40,33,93,58,23,30.16,30.08,30.03,10,10,6,24,7,29,0.00,0,,175
2008-5-2,75,65,55,52,49,47,83,60,36,30.08,30.03,29.98,10,10,10,23,9,30,0.00,0,,172
2008-5-3,66,60,53,55,53,50,93,76,58,30.00,29.96,29.90,10,10,9,20,10,26,T,2,,189
2008-5-4,75,63,50,52,45,38,100,66,31,30.03,29.98,29.93,10,10,7,16,8,21,T,3,,340
2008-5-5,75,62,48,46,40,32,77,53,29,30.06,30.01,29.96,10,10,10,21,9,25,0.00,3,,338
2008-5-6,77,61,44,44,37,30,76,48,19,30.12,30.06,30.00,10,10,7,15,5,18,0.00,0,,334
2008-5-7,76,64,51,53,48,44,83,59,35,30.09,29.99,29.90,10,10,10,21,7,25,0.00,3,,175
2008-5-8,78,70,62,61,56,52,93,67,40,29.89,29.79,29.65,10,9,4,23,11,30,0.15,3,Rain,183
2008-5-9,79,69,58,61,56,50,100,70,39,29.83,29.69,29.61,10,8,1,15,7,20,0.06,4,Rain,330
2008-5-10,75,66,56,58,54,50,100,72,44,29.88,29.80,29.74,10,9,4,18,8,23,0.00,4,,329
2008-5-11,69,60,51,56,49,39,100,69,37,29.79,29.61,29.40,10,7,1,30,12,41,0.16,7,Rain,187
2008-5-12,63,56,49,43,39,38,68,54,39,29.96,29.73,29.52,10,10,10,44,23,52,T,3,Rain,333
2008-5-13,72,56,40,47,41,37,92,61,29,30.16,30.09,29.98,10,10,10,15,5,20,0.00,0,,154
2008-5-14,68,58,48,54,49,46,93,71,48,30.18,30.10,30.04,10,10,6,20,7,24,0.02,3,Rain,180
2008-5-15,67,61,55,61,58,54,100,84,68,30.04,29.96,29.84,10,5,2,17,4,23,0.19,7,Rain,162
2008-5-16,72,61,50,62,57,43,100,79,57,29.88,29.81,29.74,10,5,0,23,9,29,0.01,7,Fog-Rain,336
2008-5-17,71,59,46,46,42,34,86,56,26,29.93,29.85,29.76,10,10,10,20,8,24,0.00,1,,345
2008-5-18,70,57,44,58,50,44,96,74,51,29.78,29.65,29.57,10,9,2,15,4,18,0.12,3,Rain,277
2008-5-19,74,58,42,50,41,31,100,61,22,29.78,29.73,29.68,10,10,7,18,5,29,0.00,0,,336
2008-5-20,80,68,55,57,52,47,78,56,33,29.68,29.57,29.52,10,10,10,22,7,28,0.02,4,Rain-Thunderstorm,296
2008-5-21,71,60,48,49,42,36,93,62,31,29.75,29.67,29.61,10,10,10,22,9,26,0.00,0,,342
2008-5-22,77,60,42,45,40,34,93,57,21,29.93,29.84,29.75,10,10,10,16,7,20,0.00,0,,339
2008-5-23,81,66,51,59,50,45,84,60,35,30.00,29.94,29.90,10,10,10,12,4,15,T,2,,277
2008-5-24,77,66,55,57,52,43,100,67,33,30.05,29.99,29.93,10,10,7,22,7,28,T,1,Rain,335
2008-5-25,77,63,48,57,53,47,93,71,49,30.14,30.09,30.05,10,10,10,14,5,18,0.00,3,,160
2008-5-26,81,69,56,63,57,53,93,70,47,30.13,30.06,30.00,10,10,8,16,7,20,0.02,3,Rain,175
2008-5-27,82,69,56,67,61,55,100,76,51,30.11,30.04,29.98,10,6,0,18,3,22,0.06,3,Fog-Rain,285
2008-5-28,69,62,54,65,62,48,100,89,78,30.27,30.13,29.99,10,6,1,12,4,17,0.52,7,Rain,13
2008-5-29,77,65,53,63,56,50,93,77,60,30.26,30.19,30.12,10,10,8,13,5,16,0.00,7,,182
2008-5-30,82,70,57,66,61,57,100,76,51,30.24,30.14,30.04,10,7,0,13,5,16,0.00,4,Fog,144
2008-5-31,87,76,64,67,61,53,93,63,32,30.07,29.99,29.91,10,8,4,18,6,23,T,2,,256